sensor_id;sensor_type;location;lat;lon;timestamp;P1;durP1;ratioP1;P2;durP2;ratioP2
74102;SDS011;62853;46.166;3.640;2024-03-02T00:02:00;0.75;;;0.60;;
74102;SDS011;62853;46.166;3.640;2024-03-02T00:04:26;0.43;;;0.43;;
74102;SDS011;62853;46.166;3.640;2024-03-02T00:06:52;1.65;;;0.70;;
74102;SDS011;62853;46.166;3.640;2024-03-02T00:09:21;2.90;;;0.70;;
74102;SDS011;62853;46.166;3.640;2024-03-02T00:11:46;0.90;;;0.45;;
74102;SDS011;62853;46.166;3.640;2024-03-02T00:14:12;0.82;;;0.40;;
74102;SDS011;62853;46.166;3.640;2024-03-02T00:16:37;0.40;;;0.30;;
74102;SDS011;62853;46.166;3.640;2024-03-02T00:19:03;0.55;;;0.30;;
74102;SDS011;62853;46.166;3.640;2024-03-02T00:21:30;0.32;;;0.20;;
74102;SDS011;62853;46.166;3.640;2024-03-02T00:23:57;0.43;;;0.30;;
74102;SDS011;62853;46.166;3.640;2024-03-02T00:26:23;0.45;;;0.30;;
74102;SDS011;62853;46.166;3.640;2024-03-02T00:28:48;0.30;;;0.20;;
74102;SDS011;62853;46.166;3.640;2024-03-02T00:31:15;0.38;;;0.20;;
74102;SDS011;62853;46.166;3.640;2024-03-02T00:33:46;0.28;;;0.10;;
74102;SDS011;62853;46.166;3.640;2024-03-02T00:36:15;0.43;;;0.20;;
74102;SDS011;62853;46.166;3.640;2024-03-02T00:38:46;0.20;;;0.20;;
74102;SDS011;62853;46.166;3.640;2024-03-02T00:41:17;0.10;;;0.10;;
74102;SDS011;62853;46.166;3.640;2024-03-02T00:43:56;0.43;;;0.20;;
74102;SDS011;62853;46.166;3.640;2024-03-02T00:46:22;0.20;;;0.20;;
74102;SDS011;62853;46.166;3.640;2024-03-02T00:48:55;0.90;;;0.20;;
74102;SDS011;62853;46.166;3.640;2024-03-02T00:51:23;0.15;;;0.15;;
74102;SDS011;62853;46.166;3.640;2024-03-02T00:53:53;0.30;;;0.20;;
74102;SDS011;62853;46.166;3.640;2024-03-02T00:56:25;0.35;;;0.20;;
74102;SDS011;62853;46.166;3.640;2024-03-02T00:58:51;0.20;;;0.10;;
74102;SDS011;62853;46.166;3.640;2024-03-02T01:01:17;0.10;;;0.10;;
74102;SDS011;62853;46.166;3.640;2024-03-02T01:03:44;0.20;;;0.10;;
74102;SDS011;62853;46.166;3.640;2024-03-02T01:06:10;0.20;;;0.20;;
74102;SDS011;62853;46.166;3.640;2024-03-02T01:08:36;0.20;;;0.20;;
74102;SDS011;62853;46.166;3.640;2024-03-02T01:11:02;0.15;;;0.15;;
74102;SDS011;62853;46.166;3.640;2024-03-02T01:13:28;0.10;;;0.10;;
74102;SDS011;62853;46.166;3.640;2024-03-02T01:15:54;0.17;;;0.15;;
74102;SDS011;62853;46.166;3.640;2024-03-02T01:18:19;0.30;;;0.17;;
74102;SDS011;62853;46.166;3.640;2024-03-02T01:20:45;0.15;;;0.10;;
74102;SDS011;62853;46.166;3.640;2024-03-02T01:23:10;0.20;;;0.10;;
74102;SDS011;62853;46.166;3.640;2024-03-02T01:25:36;0.60;;;0.20;;
74102;SDS011;62853;46.166;3.640;2024-03-02T01:28:01;0.10;;;0.10;;
74102;SDS011;62853;46.166;3.640;2024-03-02T01:30:27;0.20;;;0.10;;
74102;SDS011;62853;46.166;3.640;2024-03-02T01:32:52;0.20;;;0.17;;
74102;SDS011;62853;46.166;3.640;2024-03-02T01:35:18;0.10;;;0.10;;
74102;SDS011;62853;46.166;3.640;2024-03-02T01:37:43;0.20;;;0.10;;
74102;SDS011;62853;46.166;3.640;2024-03-02T01:40:09;0.10;;;0.10;;
74102;SDS011;62853;46.166;3.640;2024-03-02T01:42:36;0.75;;;0.20;;
74102;SDS011;62853;46.166;3.640;2024-03-02T01:45:03;0.10;;;0.10;;
74102;SDS011;62853;46.166;3.640;2024-03-02T01:47:32;0.13;;;0.13;;
74102;SDS011;62853;46.166;3.640;2024-03-02T01:49:58;0.20;;;0.13;;
74102;SDS011;62853;46.166;3.640;2024-03-02T01:52:24;0.10;;;0.10;;
74102;SDS011;62853;46.166;3.640;2024-03-02T01:54:49;0.10;;;0.10;;
74102;SDS011;62853;46.166;3.640;2024-03-02T01:57:15;0.13;;;0.13;;
74102;SDS011;62853;46.166;3.640;2024-03-02T01:59:40;0.55;;;0.17;;
74102;SDS011;62853;46.166;3.640;2024-03-02T02:02:06;0.15;;;0.15;;
74102;SDS011;62853;46.166;3.640;2024-03-02T02:04:32;0.10;;;0.10;;
74102;SDS011;62853;46.166;3.640;2024-03-02T02:06:58;0.10;;;0.10;;
74102;SDS011;62853;46.166;3.640;2024-03-02T02:09:24;0.20;;;0.10;;
74102;SDS011;62853;46.166;3.640;2024-03-02T02:11:50;0.20;;;0.13;;
74102;SDS011;62853;46.166;3.640;2024-03-02T02:14:15;0.10;;;0.10;;
74102;SDS011;62853;46.166;3.640;2024-03-02T02:16:41;0.10;;;0.08;;
74102;SDS011;62853;46.166;3.640;2024-03-02T02:19:07;0.13;;;0.10;;
74102;SDS011;62853;46.166;3.640;2024-03-02T02:21:33;0.20;;;0.10;;
74102;SDS011;62853;46.166;3.640;2024-03-02T02:23:58;0.10;;;0.10;;
74102;SDS011;62853;46.166;3.640;2024-03-02T02:26:24;0.20;;;0.20;;
74102;SDS011;62853;46.166;3.640;2024-03-02T02:28:49;0.45;;;0.10;;
74102;SDS011;62853;46.166;3.640;2024-03-02T02:31:15;0.20;;;0.20;;
74102;SDS011;62853;46.166;3.640;2024-03-02T02:33:41;0.38;;;0.20;;
74102;SDS011;62853;46.166;3.640;2024-03-02T02:36:07;0.20;;;0.20;;
74102;SDS011;62853;46.166;3.640;2024-03-02T02:38:33;0.10;;;0.10;;
74102;SDS011;62853;46.166;3.640;2024-03-02T02:41:02;0.10;;;0.10;;
74102;SDS011;62853;46.166;3.640;2024-03-02T02:43:27;0.20;;;0.10;;
74102;SDS011;62853;46.166;3.640;2024-03-02T02:45:52;0.20;;;0.10;;
74102;SDS011;62853;46.166;3.640;2024-03-02T02:48:18;0.10;;;0.10;;
74102;SDS011;62853;46.166;3.640;2024-03-02T02:50:43;0.10;;;0.10;;
74102;SDS011;62853;46.166;3.640;2024-03-02T02:53:08;0.10;;;0.10;;
74102;SDS011;62853;46.166;3.640;2024-03-02T02:55:35;0.10;;;0.10;;
74102;SDS011;62853;46.166;3.640;2024-03-02T02:58:05;0.05;;;0.00;;
74102;SDS011;62853;46.166;3.640;2024-03-02T03:00:33;0.20;;;0.10;;
74102;SDS011;62853;46.166;3.640;2024-03-02T03:02:59;0.10;;;0.10;;
74102;SDS011;62853;46.166;3.640;2024-03-02T03:05:24;0.13;;;0.13;;
74102;SDS011;62853;46.166;3.640;2024-03-02T03:07:49;0.30;;;0.13;;
74102;SDS011;62853;46.166;3.640;2024-03-02T03:10:15;0.10;;;0.10;;
74102;SDS011;62853;46.166;3.640;2024-03-02T03:12:41;0.10;;;0.10;;
74102;SDS011;62853;46.166;3.640;2024-03-02T03:15:08;0.20;;;0.20;;
74102;SDS011;62853;46.166;3.640;2024-03-02T03:17:34;1.38;;;0.10;;
74102;SDS011;62853;46.166;3.640;2024-03-02T03:20:00;0.00;;;0.00;;
74102;SDS011;62853;46.166;3.640;2024-03-02T03:22:26;0.10;;;0.10;;
74102;SDS011;62853;46.166;3.640;2024-03-02T03:24:52;0.55;;;0.20;;
74102;SDS011;62853;46.166;3.640;2024-03-02T03:27:17;0.10;;;0.10;;
74102;SDS011;62853;46.166;3.640;2024-03-02T03:29:42;0.77;;;0.20;;
74102;SDS011;62853;46.166;3.640;2024-03-02T03:32:08;0.35;;;0.17;;
74102;SDS011;62853;46.166;3.640;2024-03-02T03:34:34;0.57;;;0.20;;
74102;SDS011;62853;46.166;3.640;2024-03-02T03:37:00;0.10;;;0.10;;
74102;SDS011;62853;46.166;3.640;2024-03-02T03:39:25;0.25;;;0.17;;
74102;SDS011;62853;46.166;3.640;2024-03-02T03:41:50;0.45;;;0.10;;
74102;SDS011;62853;46.166;3.640;2024-03-02T03:44:16;0.20;;;0.20;;
74102;SDS011;62853;46.166;3.640;2024-03-02T03:46:41;0.10;;;0.10;;
74102;SDS011;62853;46.166;3.640;2024-03-02T03:49:06;0.00;;;0.00;;
74102;SDS011;62853;46.166;3.640;2024-03-02T03:51:33;0.30;;;0.10;;
74102;SDS011;62853;46.166;3.640;2024-03-02T03:53:58;0.50;;;0.10;;
74102;SDS011;62853;46.166;3.640;2024-03-02T03:56:24;0.08;;;0.00;;
74102;SDS011;62853;46.166;3.640;2024-03-02T03:58:49;0.10;;;0.10;;
74102;SDS011;62853;46.166;3.640;2024-03-02T04:01:15;0.20;;;0.10;;
74102;SDS011;62853;46.166;3.640;2024-03-02T04:03:40;0.05;;;0.03;;
74102;SDS011;62853;46.166;3.640;2024-03-02T04:06:05;0.15;;;0.10;;
74102;SDS011;62853;46.166;3.640;2024-03-02T04:08:31;0.20;;;0.15;;
74102;SDS011;62853;46.166;3.640;2024-03-02T04:10:56;0.22;;;0.10;;
74102;SDS011;62853;46.166;3.640;2024-03-02T04:13:22;1.20;;;0.10;;
74102;SDS011;62853;46.166;3.640;2024-03-02T04:15:47;0.03;;;0.00;;
74102;SDS011;62853;46.166;3.640;2024-03-02T04:18:13;0.13;;;0.10;;
74102;SDS011;62853;46.166;3.640;2024-03-02T04:20:38;0.10;;;0.10;;
74102;SDS011;62853;46.166;3.640;2024-03-02T04:23:04;0.20;;;0.15;;
74102;SDS011;62853;46.166;3.640;2024-03-02T04:25:29;0.28;;;0.17;;
74102;SDS011;62853;46.166;3.640;2024-03-02T04:27:54;0.20;;;0.20;;
74102;SDS011;62853;46.166;3.640;2024-03-02T04:30:20;0.20;;;0.17;;
74102;SDS011;62853;46.166;3.640;2024-03-02T04:32:45;0.20;;;0.20;;
74102;SDS011;62853;46.166;3.640;2024-03-02T04:35:11;0.10;;;0.10;;
74102;SDS011;62853;46.166;3.640;2024-03-02T04:37:37;0.20;;;0.13;;
74102;SDS011;62853;46.166;3.640;2024-03-02T04:40:03;1.35;;;0.10;;
74102;SDS011;62853;46.166;3.640;2024-03-02T04:42:33;0.10;;;0.10;;
74102;SDS011;62853;46.166;3.640;2024-03-02T04:44:58;0.43;;;0.20;;
74102;SDS011;62853;46.166;3.640;2024-03-02T04:47:23;0.22;;;0.10;;
74102;SDS011;62853;46.166;3.640;2024-03-02T04:49:48;0.47;;;0.20;;
74102;SDS011;62853;46.166;3.640;2024-03-02T04:52:14;0.20;;;0.17;;
74102;SDS011;62853;46.166;3.640;2024-03-02T04:54:39;0.10;;;0.10;;
74102;SDS011;62853;46.166;3.640;2024-03-02T04:57:23;0.50;;;0.00;;
74102;SDS011;62853;46.166;3.640;2024-03-02T04:59:48;0.00;;;0.00;;
74102;SDS011;62853;46.166;3.640;2024-03-02T05:02:14;0.20;;;0.10;;
74102;SDS011;62853;46.166;3.640;2024-03-02T05:04:39;0.43;;;0.10;;
74102;SDS011;62853;46.166;3.640;2024-03-02T05:07:05;0.10;;;0.10;;
74102;SDS011;62853;46.166;3.640;2024-03-02T05:09:30;0.20;;;0.13;;
74102;SDS011;62853;46.166;3.640;2024-03-02T05:11:56;0.93;;;0.10;;
74102;SDS011;62853;46.166;3.640;2024-03-02T05:14:36;0.10;;;0.10;;
74102;SDS011;62853;46.166;3.640;2024-03-02T05:17:02;0.17;;;0.17;;
74102;SDS011;62853;46.166;3.640;2024-03-02T05:19:28;0.10;;;0.10;;
74102;SDS011;62853;46.166;3.640;2024-03-02T05:21:53;0.30;;;0.10;;
74102;SDS011;62853;46.166;3.640;2024-03-02T05:24:18;0.15;;;0.10;;
74102;SDS011;62853;46.166;3.640;2024-03-02T05:26:44;0.13;;;0.13;;
74102;SDS011;62853;46.166;3.640;2024-03-02T05:29:09;0.10;;;0.10;;
74102;SDS011;62853;46.166;3.640;2024-03-02T05:31:34;0.10;;;0.10;;
74102;SDS011;62853;46.166;3.640;2024-03-02T05:34:00;0.17;;;0.17;;
74102;SDS011;62853;46.166;3.640;2024-03-02T05:36:25;0.10;;;0.08;;
74102;SDS011;62853;46.166;3.640;2024-03-02T05:38:51;1.45;;;0.17;;
74102;SDS011;62853;46.166;3.640;2024-03-02T05:41:16;0.10;;;0.10;;
74102;SDS011;62853;46.166;3.640;2024-03-02T05:43:41;0.10;;;0.10;;
74102;SDS011;62853;46.166;3.640;2024-03-02T05:46:07;0.10;;;0.10;;
74102;SDS011;62853;46.166;3.640;2024-03-02T05:48:32;0.30;;;0.15;;
74102;SDS011;62853;46.166;3.640;2024-03-02T05:50:58;0.10;;;0.10;;
74102;SDS011;62853;46.166;3.640;2024-03-02T05:53:23;0.28;;;0.10;;
74102;SDS011;62853;46.166;3.640;2024-03-02T05:55:48;0.20;;;0.20;;
74102;SDS011;62853;46.166;3.640;2024-03-02T05:58:18;0.20;;;0.15;;
74102;SDS011;62853;46.166;3.640;2024-03-02T06:01:13;0.25;;;0.10;;
74102;SDS011;62853;46.166;3.640;2024-03-02T06:03:38;0.28;;;0.20;;
74102;SDS011;62853;46.166;3.640;2024-03-02T06:06:03;0.17;;;0.17;;
74102;SDS011;62853;46.166;3.640;2024-03-02T06:08:29;0.22;;;0.20;;
74102;SDS011;62853;46.166;3.640;2024-03-02T06:10:54;0.20;;;0.13;;
74102;SDS011;62853;46.166;3.640;2024-03-02T06:13:21;0.40;;;0.20;;
74102;SDS011;62853;46.166;3.640;2024-03-02T06:15:48;0.38;;;0.20;;
74102;SDS011;62853;46.166;3.640;2024-03-02T06:18:13;0.55;;;0.30;;
74102;SDS011;62853;46.166;3.640;2024-03-02T06:20:38;0.22;;;0.10;;
74102;SDS011;62853;46.166;3.640;2024-03-02T06:23:04;0.20;;;0.20;;
74102;SDS011;62853;46.166;3.640;2024-03-02T06:25:30;0.40;;;0.20;;
74102;SDS011;62853;46.166;3.640;2024-03-02T06:27:55;0.50;;;0.20;;
74102;SDS011;62853;46.166;3.640;2024-03-02T06:30:20;0.65;;;0.20;;
74102;SDS011;62853;46.166;3.640;2024-03-02T06:32:46;0.88;;;0.20;;
74102;SDS011;62853;46.166;3.640;2024-03-02T06:35:11;0.20;;;0.20;;
74102;SDS011;62853;46.166;3.640;2024-03-02T06:37:37;0.40;;;0.28;;
74102;SDS011;62853;46.166;3.640;2024-03-02T06:40:04;0.25;;;0.10;;
74102;SDS011;62853;46.166;3.640;2024-03-02T06:42:32;0.30;;;0.10;;
74102;SDS011;62853;46.166;3.640;2024-03-02T06:44:58;0.77;;;0.20;;
74102;SDS011;62853;46.166;3.640;2024-03-02T06:47:24;0.22;;;0.15;;
74102;SDS011;62853;46.166;3.640;2024-03-02T06:49:49;0.50;;;0.38;;
74102;SDS011;62853;46.166;3.640;2024-03-02T06:52:14;0.47;;;0.20;;
74102;SDS011;62853;46.166;3.640;2024-03-02T06:54:40;0.32;;;0.20;;
74102;SDS011;62853;46.166;3.640;2024-03-02T06:57:05;0.40;;;0.20;;
74102;SDS011;62853;46.166;3.640;2024-03-02T06:59:30;0.30;;;0.20;;
74102;SDS011;62853;46.166;3.640;2024-03-02T07:01:56;0.30;;;0.20;;
74102;SDS011;62853;46.166;3.640;2024-03-02T07:04:22;0.50;;;0.20;;
74102;SDS011;62853;46.166;3.640;2024-03-02T07:06:47;0.30;;;0.20;;
74102;SDS011;62853;46.166;3.640;2024-03-02T07:09:12;0.30;;;0.20;;
74102;SDS011;62853;46.166;3.640;2024-03-02T07:11:38;1.00;;;0.10;;
74102;SDS011;62853;46.166;3.640;2024-03-02T07:14:03;0.30;;;0.20;;
74102;SDS011;62853;46.166;3.640;2024-03-02T07:16:28;1.65;;;0.20;;
74102;SDS011;62853;46.166;3.640;2024-03-02T07:18:55;0.20;;;0.20;;
74102;SDS011;62853;46.166;3.640;2024-03-02T07:21:21;0.50;;;0.30;;
74102;SDS011;62853;46.166;3.640;2024-03-02T07:23:48;0.20;;;0.10;;
74102;SDS011;62853;46.166;3.640;2024-03-02T07:26:14;0.52;;;0.20;;
74102;SDS011;62853;46.166;3.640;2024-03-02T07:28:43;0.40;;;0.20;;
74102;SDS011;62853;46.166;3.640;2024-03-02T07:31:10;0.43;;;0.20;;
74102;SDS011;62853;46.166;3.640;2024-03-02T07:33:35;0.50;;;0.30;;
74102;SDS011;62853;46.166;3.640;2024-03-02T07:36:00;0.93;;;0.25;;
74102;SDS011;62853;46.166;3.640;2024-03-02T07:38:27;0.57;;;0.30;;
74102;SDS011;62853;46.166;3.640;2024-03-02T07:40:53;0.52;;;0.17;;
74102;SDS011;62853;46.166;3.640;2024-03-02T07:43:19;1.10;;;0.20;;
74102;SDS011;62853;46.166;3.640;2024-03-02T07:45:45;0.43;;;0.32;;
74102;SDS011;62853;46.166;3.640;2024-03-02T07:48:13;0.80;;;0.40;;
74102;SDS011;62853;46.166;3.640;2024-03-02T07:50:39;0.77;;;0.28;;
74102;SDS011;62853;46.166;3.640;2024-03-02T07:53:05;0.95;;;0.20;;
74102;SDS011;62853;46.166;3.640;2024-03-02T07:55:32;0.73;;;0.30;;
74102;SDS011;62853;46.166;3.640;2024-03-02T07:57:58;2.05;;;0.30;;
74102;SDS011;62853;46.166;3.640;2024-03-02T08:00:24;0.80;;;0.60;;
74102;SDS011;62853;46.166;3.640;2024-03-02T08:02:50;0.70;;;0.40;;
74102;SDS011;62853;46.166;3.640;2024-03-02T08:05:17;0.40;;;0.20;;
74102;SDS011;62853;46.166;3.640;2024-03-02T08:07:44;0.93;;;0.40;;
74102;SDS011;62853;46.166;3.640;2024-03-02T08:10:10;0.88;;;0.22;;
74102;SDS011;62853;46.166;3.640;2024-03-02T08:12:35;0.60;;;0.32;;
74102;SDS011;62853;46.166;3.640;2024-03-02T08:15:00;0.52;;;0.30;;
74102;SDS011;62853;46.166;3.640;2024-03-02T08:17:26;1.20;;;0.40;;
74102;SDS011;62853;46.166;3.640;2024-03-02T08:19:51;0.35;;;0.28;;
74102;SDS011;62853;46.166;3.640;2024-03-02T08:22:17;1.27;;;0.30;;
74102;SDS011;62853;46.166;3.640;2024-03-02T08:24:43;0.70;;;0.30;;
74102;SDS011;62853;46.166;3.640;2024-03-02T08:27:08;1.20;;;0.50;;
74102;SDS011;62853;46.166;3.640;2024-03-02T08:29:34;1.92;;;0.50;;
74102;SDS011;62853;46.166;3.640;2024-03-02T08:32:00;1.02;;;0.30;;
74102;SDS011;62853;46.166;3.640;2024-03-02T08:34:25;0.75;;;0.20;;
74102;SDS011;62853;46.166;3.640;2024-03-02T08:36:50;0.80;;;0.55;;
74102;SDS011;62853;46.166;3.640;2024-03-02T08:39:16;1.17;;;0.28;;
74102;SDS011;62853;46.166;3.640;2024-03-02T08:41:43;1.20;;;0.30;;
74102;SDS011;62853;46.166;3.640;2024-03-02T08:44:09;0.50;;;0.40;;
74102;SDS011;62853;46.166;3.640;2024-03-02T08:46:35;0.75;;;0.38;;
74102;SDS011;62853;46.166;3.640;2024-03-02T08:49:01;0.63;;;0.30;;
74102;SDS011;62853;46.166;3.640;2024-03-02T08:51:26;0.28;;;0.10;;
74102;SDS011;62853;46.166;3.640;2024-03-02T08:53:51;0.50;;;0.30;;
74102;SDS011;62853;46.166;3.640;2024-03-02T08:56:17;0.30;;;0.25;;
74102;SDS011;62853;46.166;3.640;2024-03-02T08:58:42;0.43;;;0.25;;
74102;SDS011;62853;46.166;3.640;2024-03-02T09:01:08;0.77;;;0.30;;
74102;SDS011;62853;46.166;3.640;2024-03-02T09:03:34;0.68;;;0.30;;
74102;SDS011;62853;46.166;3.640;2024-03-02T09:06:00;0.70;;;0.30;;
74102;SDS011;62853;46.166;3.640;2024-03-02T09:08:25;0.30;;;0.20;;
74102;SDS011;62853;46.166;3.640;2024-03-02T09:10:51;0.75;;;0.35;;
74102;SDS011;62853;46.166;3.640;2024-03-02T09:13:17;0.50;;;0.20;;
74102;SDS011;62853;46.166;3.640;2024-03-02T09:15:42;0.30;;;0.25;;
74102;SDS011;62853;46.166;3.640;2024-03-02T09:18:09;0.43;;;0.20;;
74102;SDS011;62853;46.166;3.640;2024-03-02T09:20:35;0.80;;;0.20;;
74102;SDS011;62853;46.166;3.640;2024-03-02T09:23:00;1.15;;;0.40;;
74102;SDS011;62853;46.166;3.640;2024-03-02T09:25:26;1.10;;;0.40;;
74102;SDS011;62853;46.166;3.640;2024-03-02T09:27:54;1.58;;;0.40;;
74102;SDS011;62853;46.166;3.640;2024-03-02T09:30:19;0.63;;;0.32;;
74102;SDS011;62853;46.166;3.640;2024-03-02T09:32:45;0.93;;;0.30;;
74102;SDS011;62853;46.166;3.640;2024-03-02T09:35:10;1.92;;;0.30;;
74102;SDS011;62853;46.166;3.640;2024-03-02T09:37:37;0.73;;;0.40;;
74102;SDS011;62853;46.166;3.640;2024-03-02T09:40:02;0.80;;;0.30;;
74102;SDS011;62853;46.166;3.640;2024-03-02T09:42:28;0.60;;;0.30;;
74102;SDS011;62853;46.166;3.640;2024-03-02T09:44:54;0.77;;;0.50;;
74102;SDS011;62853;46.166;3.640;2024-03-02T09:47:20;2.30;;;0.40;;
74102;SDS011;62853;46.166;3.640;2024-03-02T09:49:45;2.03;;;0.60;;
74102;SDS011;62853;46.166;3.640;2024-03-02T09:52:10;1.45;;;0.55;;
74102;SDS011;62853;46.166;3.640;2024-03-02T09:54:37;0.47;;;0.30;;
74102;SDS011;62853;46.166;3.640;2024-03-02T09:57:02;1.50;;;0.40;;
74102;SDS011;62853;46.166;3.640;2024-03-02T09:59:28;0.68;;;0.40;;
74102;SDS011;62853;46.166;3.640;2024-03-02T10:02:01;0.40;;;0.20;;
74102;SDS011;62853;46.166;3.640;2024-03-02T10:04:32;1.17;;;0.30;;
74102;SDS011;62853;46.166;3.640;2024-03-02T10:07:11;0.50;;;0.40;;
74102;SDS011;62853;46.166;3.640;2024-03-02T10:09:38;0.60;;;0.30;;
74102;SDS011;62853;46.166;3.640;2024-03-02T10:12:04;0.50;;;0.38;;
74102;SDS011;62853;46.166;3.640;2024-03-02T10:14:30;1.48;;;0.77;;
74102;SDS011;62853;46.166;3.640;2024-03-02T10:17:02;0.88;;;0.30;;
74102;SDS011;62853;46.166;3.640;2024-03-02T10:19:34;0.80;;;0.40;;
74102;SDS011;62853;46.166;3.640;2024-03-02T10:22:02;0.77;;;0.40;;
74102;SDS011;62853;46.166;3.640;2024-03-02T10:24:34;1.13;;;0.40;;
74102;SDS011;62853;46.166;3.640;2024-03-02T10:27:06;0.60;;;0.40;;
74102;SDS011;62853;46.166;3.640;2024-03-02T10:29:33;0.85;;;0.40;;
74102;SDS011;62853;46.166;3.640;2024-03-02T10:31:58;1.40;;;0.50;;
74102;SDS011;62853;46.166;3.640;2024-03-02T10:34:27;1.10;;;0.35;;
74102;SDS011;62853;46.166;3.640;2024-03-02T10:36:52;1.02;;;0.30;;
74102;SDS011;62853;46.166;3.640;2024-03-02T10:39:19;0.65;;;0.38;;
74102;SDS011;62853;46.166;3.640;2024-03-02T10:41:46;1.38;;;0.30;;
74102;SDS011;62853;46.166;3.640;2024-03-02T10:44:14;1.80;;;0.50;;
74102;SDS011;62853;46.166;3.640;2024-03-02T10:46:41;0.47;;;0.40;;
74102;SDS011;62853;46.166;3.640;2024-03-02T10:49:10;2.50;;;0.50;;
74102;SDS011;62853;46.166;3.640;2024-03-02T10:51:36;0.75;;;0.30;;
74102;SDS011;62853;46.166;3.640;2024-03-02T10:54:03;1.20;;;0.35;;
74102;SDS011;62853;46.166;3.640;2024-03-02T10:59:14;1.35;;;0.40;;
74102;SDS011;62853;46.166;3.640;2024-03-02T11:01:50;1.05;;;0.50;;
74102;SDS011;62853;46.166;3.640;2024-03-02T11:04:18;1.27;;;0.32;;
74102;SDS011;62853;46.166;3.640;2024-03-02T11:06:48;1.13;;;0.43;;
74102;SDS011;62853;46.166;3.640;2024-03-02T11:09:14;0.40;;;0.28;;
74102;SDS011;62853;46.166;3.640;2024-03-02T11:11:41;0.57;;;0.32;;
74102;SDS011;62853;46.166;3.640;2024-03-02T11:14:11;1.23;;;0.40;;
74102;SDS011;62853;46.166;3.640;2024-03-02T11:16:39;1.05;;;0.30;;
74102;SDS011;62853;46.166;3.640;2024-03-02T11:19:07;0.73;;;0.30;;
74102;SDS011;62853;46.166;3.640;2024-03-02T11:21:35;1.17;;;0.30;;
74102;SDS011;62853;46.166;3.640;2024-03-02T11:27:02;0.73;;;0.30;;
74102;SDS011;62853;46.166;3.640;2024-03-02T11:32:01;1.08;;;0.40;;
74102;SDS011;62853;46.166;3.640;2024-03-02T11:34:34;0.45;;;0.30;;
74102;SDS011;62853;46.166;3.640;2024-03-02T11:37:01;0.43;;;0.35;;
74102;SDS011;62853;46.166;3.640;2024-03-02T11:39:27;0.68;;;0.40;;
74102;SDS011;62853;46.166;3.640;2024-03-02T11:41:55;1.08;;;0.30;;
74102;SDS011;62853;46.166;3.640;2024-03-02T11:44:22;0.50;;;0.30;;
74102;SDS011;62853;46.166;3.640;2024-03-02T11:49:37;0.70;;;0.40;;
74102;SDS011;62853;46.166;3.640;2024-03-02T11:52:04;0.65;;;0.38;;
74102;SDS011;62853;46.166;3.640;2024-03-02T11:54:30;0.60;;;0.30;;
74102;SDS011;62853;46.166;3.640;2024-03-02T11:57:00;0.57;;;0.38;;
74102;SDS011;62853;46.166;3.640;2024-03-02T11:59:27;0.82;;;0.30;;
74102;SDS011;62853;46.166;3.640;2024-03-02T12:01:54;0.38;;;0.25;;
74102;SDS011;62853;46.166;3.640;2024-03-02T12:04:20;0.65;;;0.30;;
74102;SDS011;62853;46.166;3.640;2024-03-02T12:06:47;0.60;;;0.50;;
74102;SDS011;62853;46.166;3.640;2024-03-02T12:09:19;0.50;;;0.30;;
74102;SDS011;62853;46.166;3.640;2024-03-02T12:11:45;1.38;;;0.57;;
74102;SDS011;62853;46.166;3.640;2024-03-02T12:14:11;0.98;;;0.30;;
74102;SDS011;62853;46.166;3.640;2024-03-02T12:16:43;1.75;;;0.40;;
74102;SDS011;62853;46.166;3.640;2024-03-02T12:19:09;0.60;;;0.30;;
74102;SDS011;62853;46.166;3.640;2024-03-02T12:21:34;1.02;;;0.32;;
74102;SDS011;62853;46.166;3.640;2024-03-02T12:24:00;0.95;;;0.30;;
74102;SDS011;62853;46.166;3.640;2024-03-02T12:26:26;2.53;;;0.50;;
74102;SDS011;62853;46.166;3.640;2024-03-02T12:28:52;0.50;;;0.30;;
74102;SDS011;62853;46.166;3.640;2024-03-02T12:31:19;2.05;;;0.50;;
74102;SDS011;62853;46.166;3.640;2024-03-02T12:33:44;1.10;;;0.50;;
74102;SDS011;62853;46.166;3.640;2024-03-02T12:36:15;0.75;;;0.40;;
74102;SDS011;62853;46.166;3.640;2024-03-02T12:38:44;1.02;;;0.47;;
74102;SDS011;62853;46.166;3.640;2024-03-02T12:41:09;0.70;;;0.50;;
74102;SDS011;62853;46.166;3.640;2024-03-02T12:43:34;0.45;;;0.40;;
74102;SDS011;62853;46.166;3.640;2024-03-02T12:46:00;1.65;;;0.43;;
74102;SDS011;62853;46.166;3.640;2024-03-02T12:48:25;0.77;;;0.40;;
74102;SDS011;62853;46.166;3.640;2024-03-02T12:50:51;0.88;;;0.40;;
74102;SDS011;62853;46.166;3.640;2024-03-02T12:53:17;0.90;;;0.50;;
74102;SDS011;62853;46.166;3.640;2024-03-02T12:55:42;0.75;;;0.60;;
74102;SDS011;62853;46.166;3.640;2024-03-02T12:58:16;1.10;;;0.40;;
74102;SDS011;62853;46.166;3.640;2024-03-02T13:00:46;0.90;;;0.50;;
74102;SDS011;62853;46.166;3.640;2024-03-02T13:03:12;1.35;;;0.60;;
74102;SDS011;62853;46.166;3.640;2024-03-02T13:05:38;1.20;;;0.50;;
74102;SDS011;62853;46.166;3.640;2024-03-02T13:08:04;0.70;;;0.40;;
74102;SDS011;62853;46.166;3.640;2024-03-02T13:10:32;0.85;;;0.50;;
74102;SDS011;62853;46.166;3.640;2024-03-02T13:12:58;0.70;;;0.47;;
74102;SDS011;62853;46.166;3.640;2024-03-02T13:15:23;0.95;;;0.50;;
74102;SDS011;62853;46.166;3.640;2024-03-02T13:17:51;0.80;;;0.43;;
74102;SDS011;62853;46.166;3.640;2024-03-02T13:20:16;0.88;;;0.30;;
74102;SDS011;62853;46.166;3.640;2024-03-02T13:22:43;0.70;;;0.43;;
74102;SDS011;62853;46.166;3.640;2024-03-02T13:25:09;0.65;;;0.40;;
74102;SDS011;62853;46.166;3.640;2024-03-02T13:27:35;1.17;;;0.70;;
74102;SDS011;62853;46.166;3.640;2024-03-02T13:30:02;0.55;;;0.40;;
74102;SDS011;62853;46.166;3.640;2024-03-02T13:32:30;0.73;;;0.47;;
74102;SDS011;62853;46.166;3.640;2024-03-02T13:34:56;0.90;;;0.60;;
74102;SDS011;62853;46.166;3.640;2024-03-02T13:37:21;0.90;;;0.50;;
74102;SDS011;62853;46.166;3.640;2024-03-02T13:39:47;1.02;;;0.57;;
74102;SDS011;62853;46.166;3.640;2024-03-02T13:42:13;1.33;;;0.75;;
74102;SDS011;62853;46.166;3.640;2024-03-02T13:44:40;0.55;;;0.32;;
74102;SDS011;62853;46.166;3.640;2024-03-02T13:47:05;0.70;;;0.30;;
74102;SDS011;62853;46.166;3.640;2024-03-02T13:49:31;1.20;;;0.50;;
74102;SDS011;62853;46.166;3.640;2024-03-02T13:52:05;0.55;;;0.30;;
74102;SDS011;62853;46.166;3.640;2024-03-02T13:54:42;1.23;;;0.43;;
74102;SDS011;62853;46.166;3.640;2024-03-02T13:57:08;0.28;;;0.20;;
74102;SDS011;62853;46.166;3.640;2024-03-02T13:59:35;1.58;;;0.50;;
74102;SDS011;62853;46.166;3.640;2024-03-02T14:02:01;0.88;;;0.47;;
74102;SDS011;62853;46.166;3.640;2024-03-02T14:04:27;0.85;;;0.40;;
74102;SDS011;62853;46.166;3.640;2024-03-02T14:06:52;0.70;;;0.30;;
74102;SDS011;62853;46.166;3.640;2024-03-02T14:09:18;1.38;;;0.40;;
74102;SDS011;62853;46.166;3.640;2024-03-02T14:11:45;0.60;;;0.30;;
74102;SDS011;62853;46.166;3.640;2024-03-02T14:14:11;1.23;;;0.40;;
74102;SDS011;62853;46.166;3.640;2024-03-02T14:16:36;0.45;;;0.30;;
74102;SDS011;62853;46.166;3.640;2024-03-02T14:19:01;1.13;;;0.40;;
74102;SDS011;62853;46.166;3.640;2024-03-02T14:21:29;0.60;;;0.40;;
74102;SDS011;62853;46.166;3.640;2024-03-02T14:23:54;0.90;;;0.40;;
74102;SDS011;62853;46.166;3.640;2024-03-02T14:26:20;1.52;;;0.60;;
74102;SDS011;62853;46.166;3.640;2024-03-02T14:28:45;1.17;;;0.40;;
74102;SDS011;62853;46.166;3.640;2024-03-02T14:31:11;1.05;;;0.30;;
74102;SDS011;62853;46.166;3.640;2024-03-02T14:33:36;0.65;;;0.40;;
74102;SDS011;62853;46.166;3.640;2024-03-02T14:36:02;0.85;;;0.40;;
74102;SDS011;62853;46.166;3.640;2024-03-02T14:38:29;0.30;;;0.20;;
74102;SDS011;62853;46.166;3.640;2024-03-02T14:40:54;0.70;;;0.30;;
74102;SDS011;62853;46.166;3.640;2024-03-02T14:43:20;1.13;;;0.40;;
74102;SDS011;62853;46.166;3.640;2024-03-02T14:45:45;0.82;;;0.30;;
74102;SDS011;62853;46.166;3.640;2024-03-02T14:48:11;0.43;;;0.30;;
74102;SDS011;62853;46.166;3.640;2024-03-02T14:50:37;1.27;;;0.40;;
74102;SDS011;62853;46.166;3.640;2024-03-02T14:53:02;0.50;;;0.40;;
74102;SDS011;62853;46.166;3.640;2024-03-02T14:55:29;0.50;;;0.30;;